createdAt,value
2022-08-29T00:01:05.647Z,99.90
2022-08-29T00:08:39.205Z,99.90
2022-08-29T00:11:07.477Z,99.90
2022-08-29T00:13:35.535Z,99.90
2022-08-29T00:16:03.695Z,99.90
2022-08-29T00:18:33.337Z,99.90
2022-08-29T00:21:00.455Z,99.90
2022-08-29T00:23:28.117Z,99.90
2022-08-29T00:31:00.040Z,99.90
2022-08-29T00:33:28.548Z,99.90
2022-08-29T00:35:56.216Z,99.90
2022-08-29T00:38:27.696Z,99.90
2022-08-29T00:40:58.410Z,99.90
2022-08-29T00:43:27.850Z,99.90
2022-08-29T00:46:09.512Z,99.90
2022-08-29T00:53:45.670Z,99.90
2022-08-29T00:56:15.568Z,99.90
2022-08-29T00:58:46.131Z,99.90
2022-08-29T01:01:14.989Z,99.90
2022-08-29T01:03:43.332Z,99.90
2022-08-29T01:06:13.113Z,99.90
2022-08-29T01:08:42.240Z,99.90
2022-08-29T01:16:32.634Z,99.90
2022-08-29T01:19:05.520Z,99.90
2022-08-29T01:21:40.420Z,99.90
2022-08-29T01:24:14.270Z,99.90
2022-08-29T01:26:43.870Z,99.90
2022-08-29T01:29:11.800Z,99.90
2022-08-29T01:31:56.428Z,99.90
2022-08-29T01:41:51.940Z,99.90
2022-08-29T01:44:22.476Z,99.90
2022-08-29T01:46:52.129Z,99.90
2022-08-29T01:49:20.038Z,99.90
2022-08-29T01:51:48.139Z,99.90
2022-08-29T01:54:16.108Z,99.90
2022-08-29T01:56:46.103Z,99.90
2022-08-29T02:04:23.799Z,99.90
2022-08-29T02:06:52.099Z,99.90
2022-08-29T02:09:19.919Z,99.90
2022-08-29T02:11:47.828Z,99.90
2022-08-29T02:14:19.678Z,99.90
2022-08-29T02:16:47.555Z,99.90
2022-08-29T02:19:14.971Z,99.90
2022-08-29T02:26:47.656Z,99.90
2022-08-29T02:29:15.199Z,99.90
2022-08-29T02:31:43.120Z,99.90
2022-08-29T02:34:12.465Z,99.90
2022-08-29T02:36:41.512Z,99.90
2022-08-29T02:39:10.720Z,99.90
2022-08-29T02:41:39.055Z,99.90
2022-08-29T02:46:49.042Z,99.90
2022-08-29T02:49:16.938Z,99.90
2022-08-29T02:51:45.378Z,99.90
2022-08-29T02:54:13.228Z,99.90
2022-08-29T02:56:41.470Z,99.90
2022-08-29T02:59:09.028Z,99.90
2022-08-29T03:01:38.516Z,99.90
2022-08-29T03:07:00.152Z,99.90
2022-08-29T03:09:27.340Z,99.90
2022-08-29T03:11:55.951Z,99.90
2022-08-29T03:14:23.719Z,99.90
2022-08-29T03:16:51.280Z,99.90
2022-08-29T03:19:19.138Z,99.90
2022-08-29T03:21:47.198Z,99.90
2022-08-29T03:26:56.822Z,99.90
2022-08-29T03:29:25.751Z,99.90
2022-08-29T03:31:53.644Z,99.90
2022-08-29T03:34:21.221Z,99.90
2022-08-29T03:36:49.010Z,99.90
2022-08-29T03:39:16.248Z,99.90
2022-08-29T03:41:44.130Z,99.90
2022-08-29T03:50:02.578Z,99.90
2022-08-29T03:52:30.221Z,99.90
2022-08-29T03:54:57.440Z,99.90
2022-08-29T03:57:28.203Z,99.90
2022-08-29T03:59:58.758Z,99.90
2022-08-29T04:02:26.089Z,99.90
2022-08-29T04:05:09.334Z,99.90
2022-08-29T04:12:51.226Z,99.90
2022-08-29T04:15:22.732Z,99.90
2022-08-29T04:17:53.520Z,99.90
2022-08-29T04:20:24.982Z,99.90
2022-08-29T04:22:54.030Z,99.90
2022-08-29T04:25:22.180Z,99.90
2022-08-29T04:27:50.999Z,99.90
2022-08-29T04:32:58.078Z,99.90
2022-08-29T04:35:25.851Z,99.90
2022-08-29T04:37:53.520Z,99.90
2022-08-29T04:40:22.501Z,99.90
2022-08-29T04:42:50.422Z,99.90
2022-08-29T04:45:21.830Z,99.90
2022-08-29T04:47:49.740Z,99.90
2022-08-29T04:55:25.650Z,99.90
2022-08-29T04:57:55.719Z,99.90
2022-08-29T05:00:27.231Z,99.90
2022-08-29T05:02:55.462Z,99.90
2022-08-29T05:05:23.770Z,99.90
2022-08-29T05:07:51.011Z,99.90
2022-08-29T05:10:19.708Z,99.90
2022-08-29T05:16:06.944Z,99.90
2022-08-29T05:18:35.098Z,99.90
2022-08-29T05:21:03.078Z,99.90
2022-08-29T05:23:30.380Z,99.90
2022-08-29T05:25:58.921Z,99.90
2022-08-29T05:28:27.848Z,99.90
2022-08-29T05:30:55.441Z,99.90
2022-08-29T05:38:23.440Z,99.90
2022-08-29T05:40:51.430Z,99.90
2022-08-29T05:43:19.131Z,99.90
2022-08-29T05:45:46.870Z,99.90
2022-08-29T05:48:16.758Z,99.90
2022-08-29T05:50:44.869Z,99.90
2022-08-29T05:53:19.050Z,99.90
2022-08-29T05:58:26.139Z,99.90
2022-08-29T06:00:53.418Z,99.90
2022-08-29T06:03:20.671Z,99.90
2022-08-29T06:05:51.362Z,99.90
2022-08-29T06:08:19.210Z,99.90
2022-08-29T06:10:47.600Z,99.90
2022-08-29T06:13:15.458Z,99.90
2022-08-29T06:21:05.680Z,99.90
2022-08-29T06:23:33.121Z,99.90
2022-08-29T06:26:00.860Z,99.90
2022-08-29T06:28:28.820Z,99.90
2022-08-29T06:30:56.103Z,99.90
2022-08-29T06:33:23.812Z,99.90
2022-08-29T06:35:53.715Z,99.90
2022-08-29T06:41:17.271Z,99.90
2022-08-29T06:43:45.537Z,99.90
2022-08-29T06:46:21.347Z,99.90
2022-08-29T06:48:49.121Z,99.90
2022-08-29T06:51:17.072Z,99.90
2022-08-29T06:53:45.110Z,99.90
2022-08-29T06:56:13.798Z,99.90
2022-08-29T07:03:49.449Z,99.90
2022-08-29T07:06:17.950Z,99.90
2022-08-29T07:08:46.727Z,99.90
2022-08-29T07:11:23.448Z,99.90
2022-08-29T07:13:51.094Z,99.90
2022-08-29T07:16:19.335Z,99.90
2022-08-29T07:18:48.130Z,99.90
2022-08-29T07:26:22.583Z,99.90
2022-08-29T07:28:51.700Z,99.90
2022-08-29T07:31:21.492Z,99.90
2022-08-29T07:33:54.445Z,99.90
2022-08-29T07:36:29.117Z,99.90
2022-08-29T07:38:56.876Z,99.90
2022-08-29T07:41:25.441Z,99.90
2022-08-29T07:49:32.465Z,99.90
2022-08-29T07:52:08.342Z,99.90
2022-08-29T07:54:36.318Z,99.90
2022-08-29T07:57:03.959Z,99.90
2022-08-29T07:59:31.758Z,99.90
2022-08-29T08:02:00.498Z,99.90
2022-08-29T08:11:41.659Z,99.90
2022-08-29T08:14:09.647Z,99.90
2022-08-29T08:16:38.097Z,99.90
2022-08-29T08:19:13.739Z,99.90
2022-08-29T08:21:49.878Z,99.90
2022-08-29T08:24:19.931Z,99.90
2022-08-29T08:26:52.400Z,99.90
2022-08-29T08:34:35.608Z,99.90
2022-08-29T08:37:10.151Z,99.90
2022-08-29T08:39:39.561Z,99.90
2022-08-29T08:42:20.614Z,99.90
2022-08-29T08:45:03.653Z,99.90
2022-08-29T08:47:34.358Z,99.90
2022-08-29T08:50:12.119Z,99.90
2022-08-29T08:57:55.327Z,99.90
2022-08-29T09:00:22.989Z,99.90
2022-08-29T09:03:03.759Z,99.90
2022-08-29T09:05:44.988Z,99.90
2022-08-29T09:08:27.728Z,99.90
2022-08-29T09:11:02.921Z,99.90
2022-08-29T09:13:47.758Z,99.90
2022-08-29T09:21:40.171Z,99.90
2022-08-29T09:24:13.878Z,99.90
2022-08-29T09:26:43.728Z,99.90
2022-08-29T09:29:13.300Z,99.90
2022-08-29T09:31:41.678Z,99.90
2022-08-29T09:34:15.197Z,99.90
2022-08-29T09:36:50.415Z,99.90
2022-08-29T09:44:32.920Z,99.90
2022-08-29T09:47:11.749Z,99.90
2022-08-29T09:49:42.077Z,99.90
2022-08-29T09:52:13.506Z,99.90
2022-08-29T09:54:43.608Z,99.90
2022-08-29T09:57:22.038Z,99.90
2022-08-29T10:00:13.695Z,99.90
2022-08-29T10:07:50.881Z,99.90
2022-08-29T10:10:22.640Z,99.90
2022-08-29T10:13:03.438Z,99.90
2022-08-29T10:15:54.068Z,99.90
2022-08-29T10:18:32.131Z,99.90
2022-08-29T10:21:16.679Z,99.90
2022-08-29T10:31:27.250Z,99.90
2022-08-29T10:34:20.587Z,99.90
2022-08-29T10:36:56.398Z,99.90
2022-08-29T10:39:41.920Z,99.90
2022-08-29T10:42:21.549Z,99.90
2022-08-29T10:45:13.480Z,99.90
2022-08-29T10:47:56.399Z,99.90
2022-08-29T10:55:33.800Z,99.90
2022-08-29T10:58:13.467Z,99.90
2022-08-29T11:00:49.910Z,99.90
2022-08-29T11:03:27.560Z,99.90
2022-08-29T11:06:05.730Z,99.90
2022-08-29T11:08:39.499Z,99.90
2022-08-29T11:11:10.749Z,99.90
2022-08-29T11:18:57.293Z,99.90
2022-08-29T11:21:36.579Z,99.90
2022-08-29T11:24:07.198Z,99.90
2022-08-29T11:27:09.444Z,99.90
2022-08-29T11:29:50.721Z,99.90
2022-08-29T11:32:35.945Z,99.90
2022-08-29T11:40:47.293Z,99.90
2022-08-29T11:43:15.886Z,99.90
2022-08-29T11:45:44.072Z,99.90
2022-08-29T11:48:29.768Z,99.90
2022-08-29T11:50:57.730Z,99.90
2022-08-29T11:53:33.338Z,99.90
2022-08-29T12:04:11.369Z,99.90
2022-08-29T12:06:55.349Z,99.60
2022-08-29T12:09:45.790Z,99.20
2022-08-29T12:12:41.418Z,99.20
2022-08-29T12:15:49.838Z,99.00
2022-08-29T12:18:36.597Z,98.40
2022-08-29T12:25:55.205Z,98.90
2022-08-29T12:28:48.498Z,98.90
2022-08-29T12:32:18.076Z,98.70
2022-08-29T12:35:18.248Z,99.80
2022-08-29T12:37:58.410Z,97.10
2022-08-29T12:40:55.004Z,97.80
2022-08-29T12:46:40.100Z,96.90
2022-08-29T12:49:20.519Z,96.50
2022-08-29T12:51:51.069Z,96.90
2022-08-29T12:54:30.698Z,97.20
2022-08-29T12:56:59.891Z,97.40
2022-08-29T12:59:29.061Z,97.50
2022-08-29T13:01:59.204Z,98.30
2022-08-29T13:09:40.228Z,97.60
2022-08-29T13:12:15.597Z,97.70
2022-08-29T13:14:51.660Z,97.00
2022-08-29T13:17:21.823Z,96.00
2022-08-29T13:20:26.302Z,96.60
2022-08-29T13:23:15.262Z,97.00
2022-08-29T13:31:32.772Z,97.80
2022-08-29T13:34:20.401Z,97.60
2022-08-29T13:37:16.380Z,97.50
2022-08-29T13:39:48.560Z,98.30
2022-08-29T13:42:30.568Z,97.60
2022-08-29T13:45:23.179Z,97.10
2022-08-29T13:50:35.232Z,96.50
2022-08-29T13:53:02.784Z,96.30
2022-08-29T13:55:30.657Z,96.50
2022-08-29T13:57:58.159Z,97.30
2022-08-29T14:00:32.351Z,97.50
2022-08-29T14:03:04.887Z,97.60
2022-08-29T14:05:34.580Z,97.30
2022-08-29T14:13:07.996Z,97.20
2022-08-29T14:15:36.135Z,98.20
2022-08-29T14:18:05.119Z,98.00
2022-08-29T14:20:32.378Z,98.40
2022-08-29T14:22:59.897Z,97.80
2022-08-29T14:25:27.440Z,97.90
2022-08-29T14:27:55.630Z,97.50
2022-08-29T14:33:20.119Z,96.10
2022-08-29T14:35:48.239Z,96.40
2022-08-29T14:38:16.476Z,96.20
2022-08-29T14:40:44.129Z,96.00
2022-08-29T14:43:12.237Z,96.20
2022-08-29T14:45:40.360Z,95.80
2022-08-29T14:48:08.041Z,96.50
2022-08-29T14:55:40.677Z,96.80
2022-08-29T14:58:11.032Z,96.70
2022-08-29T15:00:38.891Z,96.60
2022-08-29T15:03:06.651Z,96.80
2022-08-29T15:05:35.309Z,96.80
2022-08-29T15:08:17.207Z,97.30
2022-08-29T15:10:46.729Z,97.00
2022-08-29T15:17:51.817Z,96.90
2022-08-29T15:20:37.369Z,97.20
2022-08-29T15:23:06.391Z,97.00
2022-08-29T15:25:35.105Z,96.60
2022-08-29T15:28:05.685Z,97.10
2022-08-29T15:30:33.760Z,97.00
2022-08-29T15:33:03.230Z,97.60
2022-08-29T15:38:10.785Z,97.00
2022-08-29T15:40:38.616Z,96.70
2022-08-29T15:43:06.768Z,96.80
2022-08-29T15:45:34.797Z,96.90
2022-08-29T15:48:06.192Z,97.00
2022-08-29T15:50:39.839Z,96.90
2022-08-29T15:53:16.639Z,96.90
2022-08-29T15:55:45.449Z,96.50
2022-08-29T16:03:17.890Z,96.60
2022-08-29T16:05:45.787Z,96.60
2022-08-29T16:08:17.472Z,96.10
2022-08-29T16:10:46.410Z,96.00
2022-08-29T16:13:14.267Z,96.00
2022-08-29T16:15:42.289Z,96.30
2022-08-29T16:18:16.833Z,96.50
2022-08-29T16:25:50.097Z,96.20
2022-08-29T16:28:18.598Z,95.80
2022-08-29T16:30:49.299Z,96.30
2022-08-29T16:33:17.999Z,96.50
2022-08-29T16:35:46.397Z,96.40
2022-08-29T16:38:14.379Z,96.50
2022-08-29T16:40:41.917Z,96.60
2022-08-29T16:48:15.780Z,96.50
2022-08-29T16:50:46.108Z,96.40
2022-08-29T16:53:13.760Z,96.50
2022-08-29T16:55:41.848Z,96.70
2022-08-29T16:58:27.378Z,96.60
2022-08-29T17:00:55.437Z,96.70
2022-08-29T17:03:24.547Z,96.50
2022-08-29T17:10:56.137Z,96.60
2022-08-29T17:13:23.561Z,96.70
2022-08-29T17:15:50.572Z,96.50
2022-08-29T17:18:19.190Z,96.20
2022-08-29T17:20:47.941Z,96.40
2022-08-29T17:23:16.356Z,96.80
2022-08-29T17:25:44.217Z,96.60
2022-08-29T17:33:20.820Z,96.50
2022-08-29T17:35:49.172Z,96.20
2022-08-29T17:38:20.881Z,96.20
2022-08-29T17:40:49.580Z,96.30
2022-08-29T17:43:22.707Z,96.00
2022-08-29T17:45:52.609Z,96.30
2022-08-29T17:48:22.250Z,96.30
2022-08-29T17:56:25.269Z,96.50
2022-08-29T17:58:55.590Z,96.60
2022-08-29T18:01:24.779Z,96.60
2022-08-29T18:03:55.944Z,96.60
2022-08-29T18:06:23.878Z,96.80
2022-08-29T18:08:52.499Z,96.90
2022-08-29T18:11:21.579Z,96.90
2022-08-29T18:18:57.180Z,97.00
2022-08-29T18:21:25.909Z,97.00
2022-08-29T18:23:54.940Z,97.00
2022-08-29T18:26:26.901Z,97.10
2022-08-29T18:28:55.510Z,97.00
2022-08-29T18:31:23.908Z,96.90
2022-08-29T18:34:07.199Z,96.80
2022-08-29T18:41:41.789Z,96.70
2022-08-29T18:44:09.809Z,96.90
2022-08-29T18:46:40.570Z,97.00
2022-08-29T18:49:08.707Z,96.90
2022-08-29T18:51:39.849Z,96.90
2022-08-29T18:54:10.057Z,96.90
2022-08-29T18:56:38.753Z,97.00
2022-08-29T19:04:11.008Z,96.90
2022-08-29T19:06:38.383Z,96.70
2022-08-29T19:09:06.517Z,96.80
2022-08-29T19:11:34.158Z,96.80
2022-08-29T19:14:02.038Z,96.90
2022-08-29T19:16:30.289Z,97.10
2022-08-29T19:18:59.122Z,97.30
2022-08-29T19:26:33.858Z,97.60
2022-08-29T19:29:05.028Z,97.90
2022-08-29T19:31:33.267Z,97.80
2022-08-29T19:34:01.670Z,98.00
2022-08-29T19:36:30.698Z,98.00
2022-08-29T19:38:58.240Z,97.90
2022-08-29T19:41:27.757Z,97.90
2022-08-29T19:46:37.741Z,97.80
2022-08-29T19:49:08.062Z,97.90
2022-08-29T19:51:36.174Z,98.10
2022-08-29T19:54:05.900Z,97.90
2022-08-29T19:56:33.379Z,97.80
2022-08-29T19:59:01.330Z,97.80
2022-08-29T20:01:29.897Z,98.00
2022-08-29T20:09:02.461Z,97.90
2022-08-29T20:11:32.720Z,97.70
2022-08-29T20:14:11.401Z,97.70
2022-08-29T20:16:43.111Z,97.60
2022-08-29T20:19:11.990Z,97.40
2022-08-29T20:21:40.241Z,97.30
2022-08-29T20:24:08.897Z,97.40
2022-08-29T20:31:40.977Z,96.80
2022-08-29T20:34:08.449Z,96.90
2022-08-29T20:36:53.868Z,96.90
2022-08-29T20:39:22.769Z,97.00
2022-08-29T20:41:50.619Z,96.70
2022-08-29T20:44:19.960Z,96.60
2022-08-29T20:46:49.147Z,96.80
2022-08-29T20:54:24.100Z,97.00
2022-08-29T20:56:55.141Z,96.60
2022-08-29T20:59:26.640Z,96.80
2022-08-29T21:01:56.281Z,97.00
2022-08-29T21:04:41.801Z,96.90
2022-08-29T21:07:11.548Z,96.80
2022-08-29T21:09:42.849Z,97.80
2022-08-29T21:17:16.189Z,98.90
2022-08-29T21:19:44.740Z,99.90
2022-08-29T21:22:13.931Z,99.90
2022-08-29T21:24:42.139Z,99.90
2022-08-29T21:27:10.047Z,99.90
2022-08-29T21:29:37.278Z,99.90
2022-08-29T21:32:05.231Z,99.90
2022-08-29T21:37:29.041Z,99.90
2022-08-29T21:39:56.378Z,99.90
2022-08-29T21:42:24.720Z,99.90
2022-08-29T21:44:55.899Z,99.90
2022-08-29T21:47:23.419Z,99.90
2022-08-29T21:49:51.158Z,99.90
2022-08-29T21:52:18.792Z,99.90
2022-08-29T22:00:41.470Z,99.90
2022-08-29T22:03:11.742Z,99.90
2022-08-29T22:05:43.680Z,99.90
2022-08-29T22:08:14.169Z,99.90
2022-08-29T22:10:42.629Z,99.90
2022-08-29T22:13:09.991Z,99.90
2022-08-29T22:15:56.140Z,99.90
2022-08-29T22:23:24.839Z,99.90
2022-08-29T22:25:53.421Z,99.90
2022-08-29T22:28:20.858Z,99.90
2022-08-29T22:30:49.252Z,99.90
2022-08-29T22:33:16.950Z,99.90
2022-08-29T22:35:44.558Z,99.90
2022-08-29T22:38:11.772Z,99.90
2022-08-29T22:46:17.967Z,99.90
2022-08-29T22:48:45.677Z,99.90
2022-08-29T22:51:16.159Z,99.90
2022-08-29T22:54:05.370Z,99.90
2022-08-29T22:56:33.769Z,99.90
2022-08-29T22:59:01.519Z,99.90
2022-08-29T23:01:31.394Z,99.90
2022-08-29T23:09:05.672Z,99.90
2022-08-29T23:11:33.730Z,99.90
2022-08-29T23:14:01.469Z,99.90
2022-08-29T23:16:31.018Z,99.90
2022-08-29T23:19:00.392Z,99.90
2022-08-29T23:21:28.228Z,99.90
2022-08-29T23:23:56.408Z,99.90
2022-08-29T23:31:29.052Z,99.90
2022-08-29T23:33:56.589Z,99.90
2022-08-29T23:36:23.909Z,99.90
2022-08-29T23:38:52.615Z,99.90
2022-08-29T23:41:20.407Z,99.90
2022-08-29T23:43:47.789Z,99.90
2022-08-29T23:46:15.856Z,99.90
2022-08-29T23:51:56.579Z,99.90
2022-08-29T23:54:24.141Z,99.90
2022-08-29T23:56:51.342Z,99.90
2022-08-29T23:59:33.067Z,99.90
